createdAt,value
2019-02-15T00:03:21.375Z,68.00
2019-02-15T00:08:26.983Z,68.00
2019-02-15T00:13:30.898Z,69.00
2019-02-15T00:18:39.416Z,77.10
2019-02-15T00:23:49.475Z,75.67
2019-02-15T00:28:59.779Z,81.00
2019-02-15T00:34:11.486Z,80.40
2019-02-15T00:39:22.515Z,79.50
2019-02-15T00:44:32.003Z,78.11
2019-02-15T00:49:36.146Z,80.40
2019-02-15T00:54:44.619Z,78.90
2019-02-15T00:59:53.938Z,77.33
2019-02-15T01:05:04.866Z,79.71
2019-02-15T01:10:10.580Z,73.00
2019-02-15T01:15:19.166Z,71.12
2019-02-15T01:20:28.375Z,73.12
2019-02-15T01:25:36.507Z,73.89
2019-02-15T01:30:47.323Z,74.67
2019-02-15T01:35:56.648Z,76.00
2019-02-15T01:41:01.784Z,74.57
2019-02-15T01:46:08.633Z,72.00
2019-02-15T01:51:12.915Z,72.67
2019-02-15T01:56:22.072Z,68.78
2019-02-15T02:01:31.279Z,73.33
2019-02-15T02:06:37.295Z,70.12
2019-02-15T02:11:41.624Z,70.83
2019-02-15T02:16:51.875Z,72.33
2019-02-15T02:22:01.242Z,73.44
2019-02-15T02:27:09.875Z,74.67
2019-02-15T02:32:19.094Z,74.22
2019-02-15T02:37:29.287Z,74.00
2019-02-15T02:42:38.711Z,77.90
2019-02-15T02:47:49.663Z,72.58
2019-02-15T02:52:58.182Z,74.37
2019-02-15T02:58:03.183Z,73.86
2019-02-15T03:03:13.084Z,76.67
2019-02-15T03:08:16.222Z,76.00
2019-02-15T03:13:23.255Z,71.75
2019-02-15T03:18:27.423Z,71.00
2019-02-15T03:23:36.731Z,72.67
2019-02-15T03:28:41.659Z,67.43
2019-02-15T03:33:49.292Z,63.67
2019-02-15T03:38:55.336Z,68.87
2019-02-15T03:44:06.158Z,70.56
2019-02-15T03:49:11.271Z,70.86
2019-02-15T03:54:21.190Z,74.10
2019-02-15T03:59:31.143Z,74.62
2019-02-15T04:04:39.355Z,77.67
2019-02-15T04:09:47.610Z,77.33
2019-02-15T04:14:52.653Z,74.71
2019-02-15T04:19:59.354Z,71.25
2019-02-15T04:25:10.137Z,74.67
2019-02-15T04:30:14.342Z,80.20
2019-02-15T04:35:24.399Z,75.22
2019-02-15T04:40:29.432Z,76.43
2019-02-15T04:45:37.209Z,72.25
2019-02-15T04:50:48.122Z,77.67
2019-02-15T04:55:58.283Z,71.25
2019-02-15T05:01:02.426Z,75.50
2019-02-15T05:06:09.965Z,72.78
2019-02-15T05:11:16.935Z,77.00
2019-02-15T05:16:23.743Z,71.25
2019-02-15T05:21:30.713Z,72.00
2019-02-15T05:26:37.416Z,74.12
2019-02-15T05:31:42.524Z,74.43
2019-02-15T05:36:46.770Z,71.25
2019-02-15T05:41:50.920Z,76.00
2019-02-15T05:46:55.993Z,75.00
2019-02-15T05:52:01.063Z,74.50
2019-02-15T05:57:10.640Z,78.62
2019-02-15T06:02:20.025Z,75.89
2019-02-15T06:07:30.342Z,74.89
2019-02-15T06:12:39.860Z,76.67
2019-02-15T06:17:48.117Z,72.67
2019-02-15T06:22:52.170Z,72.25
2019-02-15T06:28:00.025Z,75.22
2019-02-15T06:33:05.068Z,74.29
2019-02-15T06:38:12.748Z,69.29
2019-02-15T06:43:16.371Z,77.00
2019-02-15T06:48:27.328Z,78.20
2019-02-15T06:53:31.625Z,74.00
2019-02-15T06:58:45.517Z,75.11
2019-02-15T07:03:48.106Z,73.00
2019-02-15T07:08:55.388Z,75.29
2019-02-15T07:13:59.400Z,71.50
2019-02-15T07:19:06.916Z,74.00
2019-02-15T07:24:11.880Z,67.00
2019-02-15T07:29:18.586Z,66.62
2019-02-15T07:34:27.699Z,70.92
2019-02-15T07:39:36.107Z,72.62
2019-02-15T07:44:39.475Z,74.00
2019-02-15T07:49:47.260Z,74.67
2019-02-15T07:54:58.335Z,74.46
2019-02-15T08:00:12.338Z,70.33
2019-02-15T08:05:20.259Z,73.22
2019-02-15T08:10:25.346Z,64.25
2019-02-15T08:15:36.482Z,64.56
2019-02-15T08:20:40.556Z,72.00
2019-02-15T08:25:48.881Z,70.00
2019-02-15T08:30:57.972Z,64.25
2019-02-15T08:36:06.230Z,64.00
2019-02-15T08:41:11.349Z,67.57
2019-02-15T08:46:20.526Z,66.89
2019-02-15T08:51:26.565Z,66.62
2019-02-15T08:56:35.994Z,69.33
2019-02-15T09:01:44.276Z,68.00
2019-02-15T09:06:54.358Z,65.22
2019-02-15T09:12:03.587Z,61.88
2019-02-15T09:17:12.822Z,64.62
2019-02-15T09:22:17.140Z,60.33
2019-02-15T09:27:26.392Z,57.11
2019-02-15T09:32:31.479Z,57.00
2019-02-15T09:37:39.732Z,62.00
2019-02-15T09:42:48.859Z,60.25
2019-02-15T09:47:53.083Z,58.00
2019-02-15T09:53:01.543Z,57.25
2019-02-15T09:58:08.181Z,60.11
2019-02-15T10:03:13.299Z,56.00
2019-02-15T10:08:20.848Z,50.71
2019-02-15T10:13:28.208Z,47.25
2019-02-15T10:18:37.079Z,44.00
2019-02-15T10:23:44.221Z,47.88
2019-02-15T10:28:49.934Z,54.60
2019-02-15T10:33:58.182Z,44.63
2019-02-15T10:39:05.602Z,49.00
2019-02-15T10:44:15.102Z,47.67
2019-02-15T10:49:25.030Z,29.67
2019-02-15T10:54:30.523Z,25.00
2019-02-15T10:59:34.547Z,38.25
2019-02-15T11:04:37.667Z,36.00
2019-02-15T11:09:44.008Z,32.63
2019-02-15T11:14:52.724Z,33.25
2019-02-15T11:19:59.923Z,39.63
2019-02-15T11:25:09.627Z,39.88
2019-02-15T11:30:17.231Z,44.88
2019-02-15T11:35:26.300Z,42.88
2019-02-15T11:40:34.524Z,44.22
2019-02-15T11:45:41.862Z,39.75
2019-02-15T11:50:50.974Z,43.38
2019-02-15T11:55:58.277Z,27.62
2019-02-15T12:01:03.194Z,41.00
2019-02-15T12:06:07.072Z,28.00
2019-02-15T12:11:15.359Z,36.50
2019-02-15T12:16:24.206Z,34.25
2019-02-15T12:21:31.662Z,40.00
2019-02-15T12:26:39.851Z,44.63
2019-02-15T12:31:44.611Z,39.25
2019-02-15T12:36:49.351Z,48.00
2019-02-15T12:41:58.248Z,40.25
2019-02-15T12:47:14.819Z,40.63
2019-02-15T12:52:18.423Z,41.25
2019-02-15T12:57:23.231Z,30.00
2019-02-15T13:02:31.592Z,32.75
2019-02-15T13:07:40.563Z,42.50
2019-02-15T13:12:49.672Z,33.63
2019-02-15T13:17:54.662Z,23.50
2019-02-15T13:23:03.187Z,33.00
2019-02-15T13:28:07.989Z,30.00
2019-02-15T13:33:16.370Z,26.25
2019-02-15T13:38:25.760Z,28.25
2019-02-15T13:43:30.591Z,27.00
2019-02-15T13:48:34.758Z,27.50
2019-02-15T13:53:38.860Z,30.00
2019-02-15T13:58:48.793Z,29.55
2019-02-15T14:03:57.355Z,26.71
2019-02-15T14:09:02.023Z,26.25
2019-02-15T14:14:07.906Z,32.88
2019-02-15T14:19:16.582Z,37.64
2019-02-15T14:24:23.372Z,43.00
2019-02-15T14:29:27.691Z,39.00
2019-02-15T14:34:31.652Z,45.33
2019-02-15T14:39:38.470Z,44.50
2019-02-15T14:44:43.487Z,45.00
2019-02-15T14:49:51.844Z,42.62
2019-02-15T14:55:00.940Z,38.63
2019-02-15T15:00:11.809Z,41.78
2019-02-15T15:05:16.694Z,47.00
2019-02-15T15:10:25.825Z,47.00
2019-02-15T15:15:33.961Z,40.56
2019-02-15T15:20:43.721Z,44.67
2019-02-15T15:25:51.723Z,39.44
2019-02-15T15:30:59.059Z,46.50
2019-02-15T15:36:03.420Z,42.67
2019-02-15T15:41:09.019Z,43.50
2019-02-15T15:46:13.120Z,44.00
2019-02-15T15:51:21.419Z,47.50
2019-02-15T15:56:28.987Z,54.75
2019-02-15T16:01:38.167Z,49.88
2019-02-15T16:06:47.293Z,52.75
2019-02-15T16:11:52.235Z,60.75
2019-02-15T16:17:00.638Z,55.00
2019-02-15T16:22:04.265Z,56.25
2019-02-15T16:27:13.038Z,62.25
2019-02-15T16:32:22.374Z,64.87
2019-02-15T16:37:29.299Z,60.00
2019-02-15T16:42:36.136Z,65.50
2019-02-15T16:47:40.730Z,58.00
2019-02-15T16:52:49.146Z,70.12
2019-02-15T16:57:57.301Z,70.11
2019-02-15T17:03:06.501Z,71.50
2019-02-15T17:08:11.674Z,73.00
2019-02-15T17:13:19.028Z,75.22
2019-02-15T17:18:29.132Z,70.89
2019-02-15T17:23:37.621Z,72.62
2019-02-15T17:28:45.913Z,72.67
2019-02-15T17:33:50.853Z,71.71
2019-02-15T17:38:57.780Z,67.00
2019-02-15T17:44:07.647Z,67.33
2019-02-15T17:49:16.664Z,67.87
2019-02-15T17:54:23.231Z,69.00
2019-02-15T17:59:32.462Z,67.62
2019-02-15T18:04:38.143Z,74.00
2019-02-15T18:09:44.915Z,69.87
2019-02-15T18:14:47.995Z,69.00
2019-02-15T18:19:55.370Z,71.33
2019-02-15T18:25:03.416Z,68.87
2019-02-15T18:30:11.335Z,69.25
2019-02-15T18:35:18.470Z,70.89
2019-02-15T18:40:21.984Z,134.00
2019-02-15T18:45:29.934Z,145.82
2019-02-15T18:50:41.118Z,90.50
2019-02-15T18:55:45.550Z,72.00
2019-02-15T19:00:49.810Z,70.50
2019-02-15T19:05:57.508Z,69.00
2019-02-15T19:11:05.035Z,78.00
2019-02-15T19:16:09.940Z,71.86
2019-02-15T19:21:18.359Z,73.50
2019-02-15T19:26:26.661Z,75.00
2019-02-15T19:31:31.608Z,75.00
2019-02-15T19:36:42.523Z,82.30
2019-02-15T19:41:50.272Z,70.67
2019-02-15T19:46:57.182Z,73.89
2019-02-15T19:52:01.443Z,72.00
2019-02-15T19:57:06.538Z,72.50
2019-02-15T20:02:11.064Z,71.00
2019-02-15T20:07:15.358Z,69.00
2019-02-15T20:12:24.613Z,78.00
2019-02-15T20:17:34.654Z,74.15
2019-02-15T20:22:39.636Z,76.57
2019-02-15T20:27:46.170Z,74.00
2019-02-15T20:32:57.689Z,74.20
2019-02-15T20:38:05.996Z,78.33
2019-02-15T20:43:09.302Z,75.00
2019-02-15T20:48:16.643Z,74.00
2019-02-15T20:53:26.560Z,70.11
2019-02-15T20:58:35.811Z,72.78
2019-02-15T21:03:44.653Z,84.33
2019-02-15T21:08:55.567Z,76.56
2019-02-15T21:14:06.362Z,77.89
2019-02-15T21:19:12.118Z,78.50
2019-02-15T21:24:19.818Z,75.78
2019-02-15T21:29:25.321Z,83.00
2019-02-15T21:34:28.909Z,85.80
2019-02-15T21:39:40.214Z,83.00
2019-02-15T21:44:50.486Z,96.00
2019-02-15T21:49:56.282Z,93.57
2019-02-15T21:55:08.362Z,88.89
2019-02-15T22:00:20.300Z,90.78
2019-02-15T22:05:25.400Z,94.71
2019-02-15T22:10:33.159Z,80.22
2019-02-15T22:15:43.659Z,93.67
2019-02-15T22:20:53.711Z,90.89
2019-02-15T22:25:58.890Z,91.00
2019-02-15T22:31:02.422Z,83.50
2019-02-15T22:36:10.110Z,94.44
2019-02-15T22:41:20.131Z,91.89
2019-02-15T22:46:30.284Z,98.44
2019-02-15T22:51:39.210Z,101.20
2019-02-15T22:56:44.218Z,90.25
2019-02-15T23:01:49.998Z,103.00
2019-02-15T23:07:00.926Z,108.29
2019-02-15T23:12:12.474Z,106.80
2019-02-15T23:17:17.579Z,109.71
2019-02-15T23:22:29.263Z,116.00
2019-02-15T23:27:34.694Z,104.43
2019-02-15T23:32:46.312Z,109.45
2019-02-15T23:37:58.011Z,101.00
2019-02-15T23:43:06.187Z,98.00
2019-02-15T23:48:17.554Z,101.20
2019-02-15T23:53:28.853Z,109.71
2019-02-15T23:58:32.531Z,107.00
